sensor_id;sensor_type;location;lat;lon;timestamp;pressure;altitude;pressure_sealevel;temperature;humidity
37390;BME280;39679;49.000;8.390;2022-08-24T00:02:04;100248.19;;;26.03;34.49
37390;BME280;39679;49.000;8.390;2022-08-24T00:07:05;100246.19;;;26.08;34.61
37390;BME280;39679;49.000;8.390;2022-08-24T00:12:05;100249.44;;;26.13;34.61
37390;BME280;39679;49.000;8.390;2022-08-24T00:17:05;100250.13;;;26.17;34.74
37390;BME280;39679;49.000;8.390;2022-08-24T00:22:06;100247.28;;;26.20;34.87
37390;BME280;39679;49.000;8.390;2022-08-24T00:27:06;100250.66;;;26.24;34.78
37390;BME280;39679;49.000;8.390;2022-08-24T00:32:06;100255.22;;;26.37;35.16
37390;BME280;39679;49.000;8.390;2022-08-24T00:37:06;100253.34;;;26.24;33.22
37390;BME280;39679;49.000;8.390;2022-08-24T00:42:06;100258.66;;;25.77;32.63
37390;BME280;39679;49.000;8.390;2022-08-24T00:47:12;100252.50;;;25.42;32.96
37390;BME280;39679;49.000;8.390;2022-08-24T00:52:18;100252.34;;;25.11;32.80
37390;BME280;39679;49.000;8.390;2022-08-24T00:57:22;100255.50;;;24.85;33.11
37390;BME280;39679;49.000;8.390;2022-08-24T01:02:28;100252.81;;;24.85;34.74
37390;BME280;39679;49.000;8.390;2022-08-24T01:07:30;100256.63;;;24.81;35.53
37390;BME280;39679;49.000;8.390;2022-08-24T01:12:32;100260.97;;;24.83;36.46
37390;BME280;39679;49.000;8.390;2022-08-24T01:17:33;100257.63;;;24.78;36.74
37390;BME280;39679;49.000;8.390;2022-08-24T01:22:56;100262.38;;;24.73;37.19
37390;BME280;39679;49.000;8.390;2022-08-24T01:27:59;100252.72;;;24.69;37.58
37390;BME280;39679;49.000;8.390;2022-08-24T01:33:02;100256.41;;;24.67;37.77
37390;BME280;39679;49.000;8.390;2022-08-24T01:38:05;100241.53;;;24.61;38.33
37390;BME280;39679;49.000;8.390;2022-08-24T01:43:06;100246.13;;;24.58;38.44
37390;BME280;39679;49.000;8.390;2022-08-24T01:48:07;100252.69;;;24.52;38.75
37390;BME280;39679;49.000;8.390;2022-08-24T01:53:07;100254.78;;;24.45;39.06
37390;BME280;39679;49.000;8.390;2022-08-24T01:58:08;100261.47;;;24.37;39.19
37390;BME280;39679;49.000;8.390;2022-08-24T02:03:08;100260.81;;;24.50;39.23
37390;BME280;39679;49.000;8.390;2022-08-24T02:08:08;100265.16;;;24.70;38.76
37390;BME280;39679;49.000;8.390;2022-08-24T02:13:08;100269.63;;;24.88;38.57
37390;BME280;39679;49.000;8.390;2022-08-24T02:18:09;100283.97;;;25.04;38.57
37390;BME280;39679;49.000;8.390;2022-08-24T02:23:09;100285.09;;;25.17;38.53
37390;BME280;39679;49.000;8.390;2022-08-24T02:28:10;100282.78;;;25.27;38.36
37390;BME280;39679;49.000;8.390;2022-08-24T02:33:10;100286.72;;;25.37;38.56
37390;BME280;39679;49.000;8.390;2022-08-24T02:38:10;100296.13;;;25.46;38.55
37390;BME280;39679;49.000;8.390;2022-08-24T02:43:10;100287.75;;;25.52;38.45
37390;BME280;39679;49.000;8.390;2022-08-24T02:48:11;100296.34;;;25.58;38.58
37390;BME280;39679;49.000;8.390;2022-08-24T02:53:12;100296.13;;;25.63;38.60
37390;BME280;39679;49.000;8.390;2022-08-24T02:58:13;100299.41;;;25.68;38.82
37390;BME280;39679;49.000;8.390;2022-08-24T03:03:13;100297.34;;;25.73;38.88
37390;BME280;39679;49.000;8.390;2022-08-24T03:08:14;100309.56;;;25.78;38.88
37390;BME280;39679;49.000;8.390;2022-08-24T03:13:14;100305.84;;;25.81;38.69
37390;BME280;39679;49.000;8.390;2022-08-24T03:18:14;100294.97;;;25.84;38.75
37390;BME280;39679;49.000;8.390;2022-08-24T03:23:15;100304.50;;;25.89;38.82
37390;BME280;39679;49.000;8.390;2022-08-24T03:28:15;100297.22;;;25.91;39.08
37390;BME280;39679;49.000;8.390;2022-08-24T03:33:15;100293.41;;;25.95;38.86
37390;BME280;39679;49.000;8.390;2022-08-24T03:38:16;100289.69;;;25.98;38.96
37390;BME280;39679;49.000;8.390;2022-08-24T03:43:16;100285.03;;;26.01;38.99
37390;BME280;39679;49.000;8.390;2022-08-24T03:48:16;100292.03;;;26.04;39.22
37390;BME280;39679;49.000;8.390;2022-08-24T03:53:17;100291.94;;;26.05;39.14
37390;BME280;39679;49.000;8.390;2022-08-24T03:58:17;100294.50;;;26.08;39.42
37390;BME280;39679;49.000;8.390;2022-08-24T04:03:17;100293.47;;;26.11;39.23
37390;BME280;39679;49.000;8.390;2022-08-24T04:08:17;100289.84;;;26.12;39.23
37390;BME280;39679;49.000;8.390;2022-08-24T04:13:18;100291.50;;;26.15;39.20
37390;BME280;39679;49.000;8.390;2022-08-24T04:18:18;100292.28;;;26.17;39.28
37390;BME280;39679;49.000;8.390;2022-08-24T04:23:18;100293.03;;;26.19;39.53
37390;BME280;39679;49.000;8.390;2022-08-24T04:28:18;100298.31;;;26.20;39.48
37390;BME280;39679;49.000;8.390;2022-08-24T04:33:19;100301.78;;;26.22;39.54
37390;BME280;39679;49.000;8.390;2022-08-24T04:38:19;100304.38;;;26.24;39.35
37390;BME280;39679;49.000;8.390;2022-08-24T04:43:19;100309.66;;;26.25;39.59
37390;BME280;39679;49.000;8.390;2022-08-24T04:48:19;100308.63;;;26.28;39.59
37390;BME280;39679;49.000;8.390;2022-08-24T04:53:20;100318.44;;;26.29;39.68
37390;BME280;39679;49.000;8.390;2022-08-24T04:58:20;100317.47;;;26.30;39.59
37390;BME280;39679;49.000;8.390;2022-08-24T05:03:20;100318.25;;;26.32;39.55
37390;BME280;39679;49.000;8.390;2022-08-24T05:08:21;100320.84;;;26.33;39.72
37390;BME280;39679;49.000;8.390;2022-08-24T05:13:21;100330.56;;;26.36;39.81
37390;BME280;39679;49.000;8.390;2022-08-24T05:18:21;100325.09;;;26.37;39.49
37390;BME280;39679;49.000;8.390;2022-08-24T05:23:22;100334.03;;;26.38;39.79
37390;BME280;39679;49.000;8.390;2022-08-24T05:28:22;100331.25;;;26.39;39.73
37390;BME280;39679;49.000;8.390;2022-08-24T05:33:22;100332.06;;;26.41;39.82
37390;BME280;39679;49.000;8.390;2022-08-24T05:38:22;100342.72;;;26.43;39.79
37390;BME280;39679;49.000;8.390;2022-08-24T05:43:22;100351.66;;;26.43;39.50
37390;BME280;39679;49.000;8.390;2022-08-24T05:48:23;100343.50;;;26.45;39.72
37390;BME280;39679;49.000;8.390;2022-08-24T05:53:23;100347.91;;;26.46;39.92
37390;BME280;39679;49.000;8.390;2022-08-24T05:58:23;100353.22;;;26.47;39.80
37390;BME280;39679;49.000;8.390;2022-08-24T06:03:23;100341.50;;;26.48;40.08
37390;BME280;39679;49.000;8.390;2022-08-24T06:08:23;100345.06;;;26.49;39.78
37390;BME280;39679;49.000;8.390;2022-08-24T06:13:24;100348.63;;;26.49;39.73
37390;BME280;39679;49.000;8.390;2022-08-24T06:18:24;100355.72;;;26.50;39.94
37390;BME280;39679;49.000;8.390;2022-08-24T06:23:24;100358.31;;;26.52;39.89
37390;BME280;39679;49.000;8.390;2022-08-24T06:28:24;100357.38;;;26.53;40.17
37390;BME280;39679;49.000;8.390;2022-08-24T06:33:24;100361.78;;;26.54;40.10
37390;BME280;39679;49.000;8.390;2022-08-24T06:38:25;100364.41;;;26.55;40.03
37390;BME280;39679;49.000;8.390;2022-08-24T06:43:25;100366.13;;;26.56;40.47
37390;BME280;39679;49.000;8.390;2022-08-24T06:48:25;100365.25;;;26.56;39.92
37390;BME280;39679;49.000;8.390;2022-08-24T06:53:25;100366.13;;;26.56;39.78
37390;BME280;39679;49.000;8.390;2022-08-24T06:58:26;100371.50;;;26.56;39.75
37390;BME280;39679;49.000;8.390;2022-08-24T07:03:26;100365.19;;;26.57;39.60
37390;BME280;39679;49.000;8.390;2022-08-24T07:08:26;100374.97;;;26.58;39.94
37390;BME280;39679;49.000;8.390;2022-08-24T07:13:27;100372.19;;;26.60;39.90
37390;BME280;39679;49.000;8.390;2022-08-24T07:18:27;100379.31;;;26.61;39.94
37390;BME280;39679;49.000;8.390;2022-08-24T07:23:27;100387.28;;;26.62;39.95
37390;BME280;39679;49.000;8.390;2022-08-24T07:28:27;100387.16;;;26.64;40.14
37390;BME280;39679;49.000;8.390;2022-08-24T07:33:28;100391.72;;;26.63;40.03
37390;BME280;39679;49.000;8.390;2022-08-24T07:38:28;100393.44;;;26.64;39.94
37390;BME280;39679;49.000;8.390;2022-08-24T07:43:28;100392.50;;;26.65;39.94
37390;BME280;39679;49.000;8.390;2022-08-24T07:48:28;100381.72;;;26.65;40.13
37390;BME280;39679;49.000;8.390;2022-08-24T07:53:28;100394.22;;;26.66;40.09
37390;BME280;39679;49.000;8.390;2022-08-24T07:58:29;100394.22;;;26.66;39.98
37390;BME280;39679;49.000;8.390;2022-08-24T08:03:29;100395.09;;;26.67;39.96
37390;BME280;39679;49.000;8.390;2022-08-24T08:08:30;100393.28;;;26.67;39.91
37390;BME280;39679;49.000;8.390;2022-08-24T08:13:30;100396.66;;;26.71;39.90
37390;BME280;39679;49.000;8.390;2022-08-24T08:18:30;100388.50;;;26.72;39.43
37390;BME280;39679;49.000;8.390;2022-08-24T08:23:31;100394.88;;;26.71;37.31
37390;BME280;39679;49.000;8.390;2022-08-24T08:28:32;100396.03;;;26.66;37.00
37390;BME280;39679;49.000;8.390;2022-08-24T08:33:32;100398.03;;;26.62;37.21
37390;BME280;39679;49.000;8.390;2022-08-24T08:38:33;100396.56;;;26.57;37.33
37390;BME280;39679;49.000;8.390;2022-08-24T08:48:49;100389.72;;;26.51;37.59
37390;BME280;39679;49.000;8.390;2022-08-24T09:24:54;100387.28;;;26.47;38.30
37390;BME280;39679;49.000;8.390;2022-08-24T09:35:00;100385.28;;;26.50;38.15
37390;BME280;39679;49.000;8.390;2022-08-24T09:45:19;100381.66;;;26.51;38.00
37390;BME280;39679;49.000;8.390;2022-08-24T10:16:57;100359.72;;;26.59;35.70
37390;BME280;39679;49.000;8.390;2022-08-24T10:21:39;100351.81;;;26.25;34.25
37390;BME280;39679;49.000;8.390;2022-08-24T10:47:21;100333.56;;;25.49;35.25
37390;BME280;39679;49.000;8.390;2022-08-24T11:02:38;100334.91;;;25.90;35.39
37390;BME280;39679;49.000;8.390;2022-08-24T11:07:58;100327.28;;;25.98;35.13
37390;BME280;39679;49.000;8.390;2022-08-24T11:13:21;100337.56;;;26.07;35.55
37390;BME280;39679;49.000;8.390;2022-08-24T11:18:20;100331.00;;;26.13;35.26
37390;BME280;39679;49.000;8.390;2022-08-24T11:23:34;100318.25;;;26.16;35.48
37390;BME280;39679;49.000;8.390;2022-08-24T11:33:44;100312.34;;;26.25;35.32
37390;BME280;39679;49.000;8.390;2022-08-24T11:38:44;100308.53;;;26.29;34.58
37390;BME280;39679;49.000;8.390;2022-08-24T12:04:11;100310.28;;;26.46;34.44
37390;BME280;39679;49.000;8.390;2022-08-24T12:19:28;100287.28;;;26.56;34.64
37390;BME280;39679;49.000;8.390;2022-08-24T12:24:40;100283.56;;;26.58;34.72
37390;BME280;39679;49.000;8.390;2022-08-24T12:35:15;100275.16;;;26.64;34.79
37390;BME280;39679;49.000;8.390;2022-08-24T12:45:24;100271.97;;;26.73;34.71
37390;BME280;39679;49.000;8.390;2022-08-24T12:50:30;100272.75;;;26.75;34.66
37390;BME280;39679;49.000;8.390;2022-08-24T13:00:45;100266.13;;;26.81;34.63
37390;BME280;39679;49.000;8.390;2022-08-24T13:05:46;100259.72;;;26.83;34.86
37390;BME280;39679;49.000;8.390;2022-08-24T13:10:53;100262.22;;;26.86;34.93
37390;BME280;39679;49.000;8.390;2022-08-24T13:16:00;100250.31;;;26.90;34.69
37390;BME280;39679;49.000;8.390;2022-08-24T13:21:01;100251.97;;;26.93;34.34
37390;BME280;39679;49.000;8.390;2022-08-24T13:26:18;100243.72;;;26.96;33.97
37390;BME280;39679;49.000;8.390;2022-08-24T13:57:29;100223.19;;;27.09;34.17
37390;BME280;39679;49.000;8.390;2022-08-24T14:02:47;100223.09;;;27.11;33.62
37390;BME280;39679;49.000;8.390;2022-08-24T14:18:28;100208.31;;;27.18;33.09
37390;BME280;39679;49.000;8.390;2022-08-24T14:28:41;100201.78;;;27.22;33.03
37390;BME280;39679;49.000;8.390;2022-08-24T14:33:49;100199.09;;;27.22;32.71
37390;BME280;39679;49.000;8.390;2022-08-24T14:38:56;100190.91;;;27.23;32.80
37390;BME280;39679;49.000;8.390;2022-08-24T14:44:02;100183.59;;;27.25;32.90
37390;BME280;39679;49.000;8.390;2022-08-24T15:04:33;100172.38;;;27.33;32.47
37390;BME280;39679;49.000;8.390;2022-08-24T15:09:35;100179.41;;;27.35;32.81
37390;BME280;39679;49.000;8.390;2022-08-24T15:14:50;100164.91;;;27.38;32.82
37390;BME280;39679;49.000;8.390;2022-08-24T15:24:54;100177.22;;;27.42;33.17
37390;BME280;39679;49.000;8.390;2022-08-24T15:29:57;100173.47;;;27.44;33.09
37390;BME280;39679;49.000;8.390;2022-08-24T15:34:58;100168.84;;;27.46;33.21
37390;BME280;39679;49.000;8.390;2022-08-24T15:39:58;100175.88;;;27.49;32.88
37390;BME280;39679;49.000;8.390;2022-08-24T15:44:59;100173.06;;;27.50;32.88
37390;BME280;39679;49.000;8.390;2022-08-24T15:50:01;100165.00;;;27.50;32.60
37390;BME280;39679;49.000;8.390;2022-08-24T15:55:04;100165.75;;;27.52;32.16
37390;BME280;39679;49.000;8.390;2022-08-24T16:00:11;100167.59;;;27.52;32.04
37390;BME280;39679;49.000;8.390;2022-08-24T16:15:27;100165.66;;;27.54;32.15
37390;BME280;39679;49.000;8.390;2022-08-24T16:20:30;100163.94;;;27.53;31.83
37390;BME280;39679;49.000;8.390;2022-08-24T16:25:32;100162.13;;;27.53;31.96
37390;BME280;39679;49.000;8.390;2022-08-24T16:35:45;100163.94;;;27.53;31.42
37390;BME280;39679;49.000;8.390;2022-08-24T16:40:45;100165.75;;;27.52;31.35
37390;BME280;39679;49.000;8.390;2022-08-24T16:45:46;100160.38;;;27.52;31.71
37390;BME280;39679;49.000;8.390;2022-08-24T16:50:46;100162.03;;;27.55;32.35
37390;BME280;39679;49.000;8.390;2022-08-24T16:55:46;100162.03;;;27.55;32.48
37390;BME280;39679;49.000;8.390;2022-08-24T17:00:46;100169.22;;;27.54;32.48
37390;BME280;39679;49.000;8.390;2022-08-24T17:05:47;100165.66;;;27.54;32.27
37390;BME280;39679;49.000;8.390;2022-08-24T17:10:47;100169.44;;;27.51;32.02
37390;BME280;39679;49.000;8.390;2022-08-24T17:15:47;100165.75;;;27.52;31.91
37390;BME280;39679;49.000;8.390;2022-08-24T17:20:47;100176.63;;;27.51;31.99
37390;BME280;39679;49.000;8.390;2022-08-24T17:25:47;100173.06;;;27.50;31.88
37390;BME280;39679;49.000;8.390;2022-08-24T17:30:48;100178.56;;;27.49;31.86
37390;BME280;39679;49.000;8.390;2022-08-24T17:35:49;100181.25;;;27.49;31.83
37390;BME280;39679;49.000;8.390;2022-08-24T17:40:50;100192.03;;;27.49;32.14
37390;BME280;39679;49.000;8.390;2022-08-24T17:45:50;100193.94;;;27.47;32.00
37390;BME280;39679;49.000;8.390;2022-08-24T17:50:51;100198.47;;;27.46;32.21
37390;BME280;39679;49.000;8.390;2022-08-24T17:55:52;100199.44;;;27.45;32.41
37390;BME280;39679;49.000;8.390;2022-08-24T18:00:52;100194.06;;;27.45;32.56
37390;BME280;39679;49.000;8.390;2022-08-24T18:05:52;100191.44;;;27.44;32.56
37390;BME280;39679;49.000;8.390;2022-08-24T18:10:52;100200.38;;;27.44;32.76
37390;BME280;39679;49.000;8.390;2022-08-24T18:15:52;100199.50;;;27.44;32.96
37390;BME280;39679;49.000;8.390;2022-08-24T18:20:53;100205.88;;;27.43;33.12
37390;BME280;39679;49.000;8.390;2022-08-24T18:25:53;100209.44;;;27.43;33.13
37390;BME280;39679;49.000;8.390;2022-08-24T18:30:53;100210.38;;;27.42;33.01
37390;BME280;39679;49.000;8.390;2022-08-24T18:35:53;100213.94;;;27.43;33.35
37390;BME280;39679;49.000;8.390;2022-08-24T18:40:53;100225.66;;;27.42;33.24
37390;BME280;39679;49.000;8.390;2022-08-24T18:45:54;100222.97;;;27.42;33.20
37390;BME280;39679;49.000;8.390;2022-08-24T18:50:54;100226.63;;;27.41;32.98
37390;BME280;39679;49.000;8.390;2022-08-24T18:55:55;100231.03;;;27.42;32.80
37390;BME280;39679;49.000;8.390;2022-08-24T19:00:55;100235.56;;;27.41;32.81
37390;BME280;39679;49.000;8.390;2022-08-24T19:05:55;100235.66;;;27.40;32.63
37390;BME280;39679;49.000;8.390;2022-08-24T19:10:55;100240.19;;;27.39;32.87
37390;BME280;39679;49.000;8.390;2022-08-24T19:15:55;100244.69;;;27.39;32.70
37390;BME280;39679;49.000;8.390;2022-08-24T19:20:56;100244.69;;;27.39;32.79
37390;BME280;39679;49.000;8.390;2022-08-24T19:25:56;100250.06;;;27.39;32.88
37390;BME280;39679;49.000;8.390;2022-08-24T19:30:58;100242.09;;;27.37;33.01
37390;BME280;39679;49.000;8.390;2022-08-24T19:35:58;100233.16;;;27.37;33.05
37390;BME280;39679;49.000;8.390;2022-08-24T19:40:59;100235.84;;;27.37;33.26
37390;BME280;39679;49.000;8.390;2022-08-24T19:46:00;100237.50;;;27.39;34.35
37390;BME280;39679;49.000;8.390;2022-08-24T19:51:01;100240.97;;;27.12;32.42
37390;BME280;39679;49.000;8.390;2022-08-24T19:56:02;100239.06;;;26.68;30.97
37390;BME280;39679;49.000;8.390;2022-08-24T20:01:21;100240.88;;;26.23;30.28
37390;BME280;39679;49.000;8.390;2022-08-24T20:06:22;100240.97;;;25.73;29.80
37390;BME280;39679;49.000;8.390;2022-08-24T20:11:23;100243.97;;;25.34;29.42
37390;BME280;39679;49.000;8.390;2022-08-24T20:16:24;100240.06;;;25.07;29.34
37390;BME280;39679;49.000;8.390;2022-08-24T20:21:25;100246.53;;;24.86;29.23
37390;BME280;39679;49.000;8.390;2022-08-24T20:26:26;100256.41;;;24.67;29.21
37390;BME280;39679;49.000;8.390;2022-08-24T20:31:27;100253.78;;;24.48;29.31
37390;BME280;39679;49.000;8.390;2022-08-24T20:36:30;100255.47;;;24.32;29.35
37390;BME280;39679;49.000;8.390;2022-08-24T20:41:31;100254.78;;;24.10;30.45
37390;BME280;39679;49.000;8.390;2022-08-24T20:46:31;100255.72;;;24.09;31.42
37390;BME280;39679;49.000;8.390;2022-08-24T20:51:32;100253.38;;;24.38;32.12
37390;BME280;39679;49.000;8.390;2022-08-24T20:56:33;100246.78;;;24.81;34.57
37390;BME280;39679;49.000;8.390;2022-08-24T21:01:34;100252.44;;;24.92;34.06
37390;BME280;39679;49.000;8.390;2022-08-24T21:06:35;100240.09;;;24.71;31.64
37390;BME280;39679;49.000;8.390;2022-08-24T21:11:35;100242.66;;;24.38;30.74
37390;BME280;39679;49.000;8.390;2022-08-24T21:16:39;100244.00;;;24.11;30.15
37390;BME280;39679;49.000;8.390;2022-08-24T21:21:39;100244.03;;;23.91;30.01
37390;BME280;39679;49.000;8.390;2022-08-24T21:26:43;100247.44;;;23.76;29.59
37390;BME280;39679;49.000;8.390;2022-08-24T21:31:44;100244.44;;;23.63;29.71
37390;BME280;39679;49.000;8.390;2022-08-24T21:36:45;100244.16;;;23.51;29.86
37390;BME280;39679;49.000;8.390;2022-08-24T21:41:46;100255.41;;;23.39;29.71
37390;BME280;39679;49.000;8.390;2022-08-24T21:46:46;100251.38;;;23.29;32.50
37390;BME280;39679;49.000;8.390;2022-08-24T21:51:47;100253.41;;;23.44;35.89
37390;BME280;39679;49.000;8.390;2022-08-24T21:56:47;100256.28;;;23.39;32.90
37390;BME280;39679;49.000;8.390;2022-08-24T22:01:47;100251.63;;;23.23;31.94
37390;BME280;39679;49.000;8.390;2022-08-24T22:06:48;100258.47;;;23.10;31.41
37390;BME280;39679;49.000;8.390;2022-08-24T22:11:48;100257.00;;;23.03;31.27
37390;BME280;39679;49.000;8.390;2022-08-24T22:16:48;100263.47;;;22.97;30.72
37390;BME280;39679;49.000;8.390;2022-08-24T22:21:48;100262.06;;;22.88;30.97
37390;BME280;39679;49.000;8.390;2022-08-24T22:26:49;100265.13;;;22.79;30.47
37390;BME280;39679;49.000;8.390;2022-08-24T22:31:49;100260.09;;;22.72;30.61
37390;BME280;39679;49.000;8.390;2022-08-24T22:36:49;100252.72;;;22.78;30.89
37390;BME280;39679;49.000;8.390;2022-08-24T22:41:49;100253.44;;;23.02;31.90
37390;BME280;39679;49.000;8.390;2022-08-24T22:46:51;100260.53;;;23.43;32.28
37390;BME280;39679;49.000;8.390;2022-08-24T22:51:52;100253.56;;;23.78;31.99
37390;BME280;39679;49.000;8.390;2022-08-24T22:56:53;100242.41;;;24.07;32.19
37390;BME280;39679;49.000;8.390;2022-08-24T23:01:54;100252.72;;;24.33;32.80
37390;BME280;39679;49.000;8.390;2022-08-24T23:06:55;100254.25;;;24.56;35.50
37390;BME280;39679;49.000;8.390;2022-08-24T23:11:55;100246.03;;;24.78;37.00
37390;BME280;39679;49.000;8.390;2022-08-24T23:16:55;100238.22;;;24.90;37.85
37390;BME280;39679;49.000;8.390;2022-08-24T23:21:56;100237.59;;;25.02;36.53
37390;BME280;39679;49.000;8.390;2022-08-24T23:26:56;100241.38;;;25.15;36.18
37390;BME280;39679;49.000;8.390;2022-08-24T23:31:56;100238.22;;;25.24;36.79
37390;BME280;39679;49.000;8.390;2022-08-24T23:36:57;100239.38;;;25.36;39.82
37390;BME280;39679;49.000;8.390;2022-08-24T23:41:57;100237.19;;;25.44;39.76
37390;BME280;39679;49.000;8.390;2022-08-24T23:46:57;100238.63;;;25.51;38.79
37390;BME280;39679;49.000;8.390;2022-08-24T23:51:57;100239.22;;;25.56;38.59
37390;BME280;39679;49.000;8.390;2022-08-24T23:56:58;100226.44;;;25.61;38.20
